West Bend, Wisconsin
Current Conditions -  °F | °C
As of 1:15 PM on Friday 28 Nov 2014 (Local Time) from KETB Reporting Station
Overcast Overcast  
Wind Chill: 18°   Ceiling: 8500
Heat Index: 27°   Visibility: 10mi
Dew Point: 14°   Wind: 8mph
Humidity: 59%   Direction: 150°SSE
Pressure: 29.99"   Gusts: NA
Location:  43.41°N, 88.18°W
Report Text: KETB 281915Z AUTO 15007KT 10SM OVC085 M03/M10 A2999 RMK AO2
Loading
Personal Weather Stations






























Interactive Weather Map New forecast layout! Learn more

10-Day Weather Forecast

Advertisements
Track Severe Weather on mobile